createdAt,value
2022-07-25T00:00:43.375Z,0.00
2022-07-25T00:01:43.474Z,0.00
2022-07-25T00:02:43.355Z,0.00
2022-07-25T00:03:43.342Z,0.00
2022-07-25T00:04:43.405Z,0.00
2022-07-25T00:05:43.321Z,0.00
2022-07-25T00:06:43.310Z,0.00
2022-07-25T00:07:43.312Z,0.00
2022-07-25T00:08:43.286Z,0.00
2022-07-25T00:09:43.275Z,0.00
2022-07-25T00:10:43.290Z,0.00
2022-07-25T00:11:43.255Z,0.00
2022-07-25T00:12:43.348Z,0.00
2022-07-25T00:13:43.230Z,0.00
2022-07-25T00:14:43.223Z,0.00
2022-07-25T00:15:43.265Z,0.00
2022-07-25T00:16:43.220Z,0.00
2022-07-25T00:17:43.183Z,0.00
2022-07-25T00:18:43.308Z,0.00
2022-07-25T00:19:43.168Z,0.00
2022-07-25T00:20:43.150Z,0.00
2022-07-25T00:21:43.141Z,0.00
2022-07-25T00:22:43.149Z,0.00
2022-07-25T00:23:43.115Z,0.00
2022-07-25T00:24:43.311Z,0.00
2022-07-25T00:25:43.095Z,0.00
2022-07-25T00:26:43.085Z,0.00
2022-07-25T00:27:43.076Z,0.00
2022-07-25T00:28:43.074Z,0.00
2022-07-25T00:29:43.047Z,0.00
2022-07-25T00:30:43.055Z,0.00
2022-07-25T00:31:43.107Z,0.00
2022-07-25T00:32:43.012Z,0.00
2022-07-25T00:33:42.998Z,0.00
2022-07-25T00:34:43.014Z,0.00
2022-07-25T00:35:43.184Z,0.00
2022-07-25T00:36:42.973Z,0.00
2022-07-25T00:37:42.955Z,0.00
2022-07-25T00:38:42.953Z,0.00
2022-07-25T00:39:42.982Z,0.00
2022-07-25T00:40:42.942Z,0.00
2022-07-25T00:41:42.939Z,0.00
2022-07-25T00:42:42.907Z,0.00
2022-07-25T00:43:42.894Z,0.00
2022-07-25T00:44:42.888Z,0.00
2022-07-25T00:45:42.872Z,0.00
2022-07-25T00:46:43.000Z,0.00
2022-07-25T00:47:42.851Z,0.00
2022-07-25T00:48:42.879Z,0.00
2022-07-25T00:49:42.828Z,0.00
2022-07-25T00:50:42.820Z,0.00
2022-07-25T00:52:01.240Z,0.00
2022-07-25T00:52:42.796Z,0.00
2022-07-25T00:53:43.168Z,0.00
2022-07-25T00:54:42.772Z,0.00
2022-07-25T00:55:42.759Z,0.00
2022-07-25T00:56:42.756Z,0.00
2022-07-25T00:57:42.768Z,0.00
2022-07-25T00:58:42.756Z,0.00
2022-07-25T00:59:42.716Z,0.00
2022-07-25T01:00:42.700Z,0.00
2022-07-25T01:01:42.795Z,0.00
2022-07-25T01:02:42.784Z,0.00
2022-07-25T01:03:42.721Z,0.00
2022-07-25T01:04:42.662Z,0.00
2022-07-25T01:05:42.650Z,0.00
2022-07-25T01:06:42.639Z,0.00
2022-07-25T01:07:42.626Z,0.00
2022-07-25T01:08:42.699Z,0.00
2022-07-25T01:09:42.602Z,0.00
2022-07-25T01:10:42.595Z,0.00
2022-07-25T01:11:42.592Z,0.00
2022-07-25T01:12:42.566Z,0.00
2022-07-25T01:13:42.599Z,0.00
2022-07-25T01:14:42.592Z,0.00
2022-07-25T01:15:42.585Z,0.00
2022-07-25T01:16:42.525Z,0.00
2022-07-25T01:17:42.524Z,0.00
2022-07-25T01:18:42.547Z,0.00
2022-07-25T01:19:42.497Z,0.00
2022-07-25T01:20:42.532Z,0.00
2022-07-25T01:21:42.488Z,0.00
2022-07-25T01:22:42.459Z,0.00
2022-07-25T01:23:42.445Z,0.00
2022-07-25T01:24:42.463Z,0.00
2022-07-25T01:25:42.435Z,0.00
2022-07-25T01:26:42.443Z,0.00
2022-07-25T01:27:42.400Z,0.00
2022-07-25T01:28:42.390Z,0.00
2022-07-25T01:29:42.435Z,0.00
2022-07-25T01:30:42.431Z,0.00
2022-07-25T01:31:42.352Z,0.00
2022-07-25T01:32:42.364Z,0.00
2022-07-25T01:33:42.340Z,0.00
2022-07-25T01:34:42.322Z,0.00
2022-07-25T01:35:43.630Z,0.00
2022-07-25T01:36:42.305Z,0.00
2022-07-25T01:37:42.347Z,0.00
2022-07-25T01:38:42.291Z,0.00
2022-07-25T01:39:42.271Z,0.00
2022-07-25T01:40:42.288Z,0.00
2022-07-25T01:41:42.252Z,0.00
2022-07-25T01:42:42.233Z,0.00
2022-07-25T01:43:42.233Z,0.00
2022-07-25T01:44:42.237Z,0.00
2022-07-25T01:45:42.231Z,0.00
2022-07-25T01:46:42.236Z,0.00
2022-07-25T01:47:42.179Z,0.00
2022-07-25T01:48:42.233Z,0.00
2022-07-25T01:49:42.158Z,0.00
2022-07-25T01:50:42.219Z,0.00
2022-07-25T01:51:42.136Z,0.00
2022-07-25T01:52:42.146Z,0.00
2022-07-25T01:53:42.120Z,0.00
2022-07-25T01:54:42.105Z,0.00
2022-07-25T01:55:42.091Z,0.00
2022-07-25T01:56:42.124Z,0.00
2022-07-25T01:57:49.480Z,0.00
2022-07-25T01:58:43.052Z,0.00
2022-07-25T01:59:42.045Z,0.00
2022-07-25T02:00:42.031Z,0.00
2022-07-25T02:01:42.144Z,0.00
2022-07-25T02:02:42.058Z,0.00
2022-07-25T02:03:53.054Z,0.00
2022-07-25T02:04:42.172Z,0.00
2022-07-25T02:05:55.382Z,0.00
2022-07-25T02:07:10.003Z,0.00
2022-07-25T02:07:50.682Z,0.00
2022-07-25T02:08:41.993Z,0.00
2022-07-25T02:09:42.002Z,0.00
2022-07-25T02:10:41.971Z,0.00
2022-07-25T02:11:41.945Z,0.00
2022-07-25T02:12:47.348Z,0.00
2022-07-25T02:13:42.093Z,0.00
2022-07-25T02:14:42.746Z,0.00
2022-07-25T02:15:41.873Z,0.00
2022-07-25T02:16:56.404Z,0.00
2022-07-25T02:17:42.031Z,0.00
2022-07-25T02:18:41.953Z,0.00
2022-07-25T02:19:41.873Z,0.00
2022-07-25T02:20:41.827Z,0.00
2022-07-25T02:21:41.878Z,0.00
2022-07-25T02:22:41.992Z,0.00
2022-07-25T02:23:41.973Z,0.00
2022-07-25T02:24:41.791Z,0.00
2022-07-25T02:25:41.763Z,0.00
2022-07-25T02:26:41.763Z,0.00
2022-07-25T02:27:41.751Z,0.00
2022-07-25T02:28:41.753Z,0.00
2022-07-25T02:29:41.709Z,0.00
2022-07-25T02:30:41.825Z,0.00
2022-07-25T02:31:41.686Z,0.00
2022-07-25T02:32:42.248Z,0.00
2022-07-25T02:33:46.770Z,0.00
2022-07-25T02:34:41.657Z,0.00
2022-07-25T02:35:41.658Z,0.00
2022-07-25T02:36:41.648Z,0.00
2022-07-25T02:37:41.646Z,0.00
2022-07-25T02:38:41.617Z,0.00
2022-07-25T02:39:41.600Z,0.00
2022-07-25T02:40:41.588Z,0.00
2022-07-25T02:41:41.651Z,0.00
2022-07-25T02:42:41.564Z,0.00
2022-07-25T02:43:41.555Z,0.00
2022-07-25T02:44:41.545Z,0.00
2022-07-25T02:45:41.558Z,0.00
2022-07-25T02:46:41.523Z,0.00
2022-07-25T02:47:41.601Z,0.00
2022-07-25T02:48:41.541Z,4.00
2022-07-25T02:49:41.494Z,4.00
2022-07-25T02:50:41.478Z,0.00
2022-07-25T02:51:41.465Z,0.00
2022-07-25T02:52:41.455Z,4.00
2022-07-25T02:53:56.717Z,4.00
2022-07-25T02:54:41.438Z,4.00
2022-07-25T02:55:41.424Z,4.00
2022-07-25T02:56:41.417Z,4.00
2022-07-25T02:57:42.253Z,4.00
2022-07-25T02:58:41.490Z,4.00
2022-07-25T02:59:41.397Z,8.00
2022-07-25T03:00:41.362Z,4.00
2022-07-25T03:01:41.400Z,8.00
2022-07-25T03:02:41.344Z,8.00
2022-07-25T03:03:41.378Z,12.00
2022-07-25T03:04:42.814Z,12.00
2022-07-25T03:05:41.331Z,16.00
2022-07-25T03:06:51.674Z,16.00
2022-07-25T03:07:41.350Z,16.00
2022-07-25T03:08:41.352Z,24.00
2022-07-25T03:09:41.287Z,24.00
2022-07-25T03:10:41.369Z,28.00
2022-07-25T03:11:41.263Z,32.00
2022-07-25T03:12:41.311Z,32.00
2022-07-25T03:13:41.404Z,36.00
2022-07-25T03:14:41.262Z,40.00
2022-07-25T03:15:50.769Z,44.00
2022-07-25T03:16:41.256Z,48.00
2022-07-25T03:17:41.245Z,52.00
2022-07-25T03:18:41.227Z,56.00
2022-07-25T03:19:46.439Z,60.00
2022-07-25T03:20:41.198Z,64.00
2022-07-25T03:21:49.849Z,68.00
2022-07-25T03:22:41.214Z,76.00
2022-07-25T03:23:41.147Z,84.00
2022-07-25T03:24:41.169Z,88.00
2022-07-25T03:25:46.545Z,92.00
2022-07-25T03:26:41.296Z,104.00
2022-07-25T03:27:41.082Z,112.00
2022-07-25T03:28:41.062Z,124.00
2022-07-25T03:29:55.141Z,132.00
2022-07-25T03:30:41.216Z,140.00
2022-07-25T03:31:46.439Z,152.00
2022-07-25T03:32:41.001Z,164.00
2022-07-25T03:33:41.025Z,176.00
2022-07-25T03:34:40.983Z,192.00
2022-07-25T03:35:40.968Z,204.00
2022-07-25T03:36:40.959Z,216.00
2022-07-25T03:38:31.006Z,232.00
2022-07-25T03:38:40.957Z,248.00
2022-07-25T03:39:41.023Z,268.00
2022-07-25T03:40:51.530Z,284.00
2022-07-25T03:41:40.966Z,292.00
2022-07-25T03:42:40.966Z,292.00
2022-07-25T03:43:40.928Z,296.00
2022-07-25T03:44:40.913Z,300.00
2022-07-25T03:45:46.106Z,316.00
2022-07-25T03:46:41.060Z,328.00
2022-07-25T03:47:40.852Z,336.00
2022-07-25T03:48:40.912Z,344.00
2022-07-25T03:49:40.834Z,352.00
2022-07-25T03:50:40.796Z,360.00
2022-07-25T03:51:40.787Z,372.00
2022-07-25T03:53:12.850Z,396.00
2022-07-25T03:53:46.069Z,420.00
2022-07-25T03:54:40.796Z,436.00
2022-07-25T03:55:40.804Z,436.00
2022-07-25T03:56:44.058Z,444.00
2022-07-25T03:57:40.933Z,464.00
2022-07-25T03:58:40.735Z,504.00
2022-07-25T03:59:40.743Z,544.00
2022-07-25T04:00:40.770Z,556.00
2022-07-25T04:01:50.242Z,540.00
2022-07-25T04:02:40.804Z,524.00
2022-07-25T04:03:40.700Z,528.00
2022-07-25T04:04:40.703Z,536.00
2022-07-25T04:05:50.232Z,560.00
2022-07-25T04:06:50.659Z,584.00
2022-07-25T04:08:10.287Z,608.00
2022-07-25T04:08:40.635Z,628.00
2022-07-25T04:09:40.633Z,660.00
2022-07-25T04:10:40.640Z,704.00
2022-07-25T04:11:40.630Z,760.00
2022-07-25T04:12:40.654Z,792.00
2022-07-25T04:13:40.726Z,800.00
2022-07-25T04:14:40.543Z,812.00
2022-07-25T04:15:40.520Z,812.00
2022-07-25T04:16:49.321Z,816.00
2022-07-25T04:17:40.650Z,828.00
2022-07-25T04:18:40.559Z,852.00
2022-07-25T04:19:40.545Z,912.00
2022-07-25T04:20:40.752Z,980.00
2022-07-25T04:21:40.475Z,1020.00
2022-07-25T04:22:44.789Z,1048.00
2022-07-25T04:23:50.035Z,1048.00
2022-07-25T04:24:40.480Z,1040.00
2022-07-25T04:25:40.487Z,1032.00
2022-07-25T04:26:40.457Z,1024.00
2022-07-25T04:27:40.521Z,1052.00
2022-07-25T04:28:40.592Z,1116.00
2022-07-25T04:29:40.397Z,1196.00
2022-07-25T04:30:40.353Z,1216.00
2022-07-25T04:31:40.383Z,1232.00
2022-07-25T04:32:40.394Z,1240.00
2022-07-25T04:33:40.328Z,1252.00
2022-07-25T04:34:40.312Z,1264.00
2022-07-25T04:35:40.325Z,1280.00
2022-07-25T04:36:40.294Z,1292.00
2022-07-25T04:37:40.632Z,1304.00
2022-07-25T04:39:32.700Z,1332.00
2022-07-25T04:40:32.079Z,1348.00
2022-07-25T04:41:32.069Z,1364.00
2022-07-25T04:42:33.010Z,1376.00
2022-07-25T04:43:32.016Z,1388.00
2022-07-25T04:44:31.986Z,1388.00
2022-07-25T04:45:32.030Z,1404.00
2022-07-25T04:46:31.970Z,1420.00
2022-07-25T04:47:31.945Z,1420.00
2022-07-25T04:48:37.266Z,1416.00
2022-07-25T04:49:31.919Z,1420.00
2022-07-25T04:50:31.910Z,1436.00
2022-07-25T04:51:31.925Z,1440.00
2022-07-25T04:52:31.938Z,1428.00
2022-07-25T04:53:31.877Z,1428.00
2022-07-25T04:54:31.883Z,1488.00
2022-07-25T04:55:31.845Z,1572.00
2022-07-25T04:56:31.870Z,1580.00
2022-07-25T04:57:31.821Z,1600.00
2022-07-25T04:58:31.810Z,1608.00
2022-07-25T04:59:31.895Z,1604.00
2022-07-25T05:00:31.821Z,1600.00
2022-07-25T05:01:31.861Z,1588.00
2022-07-25T05:02:31.886Z,1572.00
2022-07-25T05:03:31.759Z,1592.00
2022-07-25T05:04:31.766Z,1644.00
2022-07-25T05:05:31.750Z,1656.00
2022-07-25T05:06:31.731Z,1632.00
2022-07-25T05:07:31.714Z,1672.00
2022-07-25T05:08:31.690Z,1672.00
2022-07-25T05:09:31.694Z,1684.00
2022-07-25T05:10:31.721Z,1692.00
2022-07-25T05:11:31.662Z,1708.00
2022-07-25T05:12:31.652Z,1720.00
2022-07-25T05:13:31.656Z,1724.00
2022-07-25T05:14:31.633Z,1712.00
2022-07-25T05:15:31.720Z,1700.00
2022-07-25T05:16:31.843Z,1744.00
2022-07-25T05:17:31.692Z,1752.00
2022-07-25T05:18:31.589Z,1764.00
2022-07-25T05:19:31.578Z,1772.00
2022-07-25T05:20:31.556Z,1780.00
2022-07-25T05:21:31.589Z,1784.00
2022-07-25T05:22:31.552Z,1792.00
2022-07-25T05:23:31.525Z,1800.00
2022-07-25T05:24:31.515Z,1804.00
2022-07-25T05:25:31.508Z,1812.00
2022-07-25T05:26:31.493Z,1824.00
2022-07-25T05:27:31.503Z,1828.00
2022-07-25T05:28:31.503Z,1828.00
2022-07-25T05:29:31.470Z,1840.00
2022-07-25T05:30:35.299Z,1844.00
2022-07-25T05:31:32.500Z,1852.00
2022-07-25T05:32:31.527Z,1860.00
2022-07-25T05:33:31.425Z,1868.00
2022-07-25T05:34:31.426Z,1868.00
2022-07-25T05:35:31.400Z,1868.00
2022-07-25T05:36:31.392Z,1868.00
2022-07-25T05:37:31.377Z,1876.00
2022-07-25T05:38:31.431Z,1880.00
2022-07-25T05:39:31.353Z,1880.00
2022-07-25T05:40:31.362Z,1872.00
2022-07-25T05:41:31.411Z,1876.00
2022-07-25T05:42:31.329Z,1876.00
2022-07-25T05:43:31.373Z,1880.00
2022-07-25T05:44:31.315Z,1876.00
2022-07-25T05:45:31.293Z,1872.00
2022-07-25T05:46:31.323Z,1860.00
2022-07-25T05:47:31.266Z,1860.00
2022-07-25T05:48:31.314Z,1868.00
2022-07-25T05:49:31.255Z,1880.00
2022-07-25T05:50:31.232Z,1880.00
2022-07-25T05:51:31.220Z,1904.00
2022-07-25T05:52:31.217Z,1936.00
2022-07-25T05:53:31.203Z,1944.00
2022-07-25T05:54:31.444Z,1940.00
2022-07-25T05:55:31.181Z,1940.00
2022-07-25T05:56:31.166Z,1928.00
2022-07-25T05:57:31.155Z,1920.00
2022-07-25T05:58:31.130Z,1920.00
2022-07-25T05:59:31.131Z,1872.00
2022-07-25T06:00:31.165Z,1872.00
2022-07-25T06:01:31.156Z,1924.00
2022-07-25T06:02:31.277Z,1940.00
2022-07-25T06:03:31.153Z,1952.00
2022-07-25T06:04:31.142Z,1952.00
2022-07-25T06:05:31.267Z,1968.00
2022-07-25T06:06:31.049Z,1984.00
2022-07-25T06:07:31.088Z,1972.00
2022-07-25T06:08:31.049Z,1948.00
2022-07-25T06:09:31.044Z,1904.00
2022-07-25T06:10:31.008Z,1884.00
2022-07-25T06:11:31.083Z,2008.00
2022-07-25T06:12:30.980Z,2044.00
2022-07-25T06:13:31.005Z,2064.00
2022-07-25T06:14:31.081Z,2052.00
2022-07-25T06:15:30.962Z,2040.00
2022-07-25T06:16:31.373Z,2028.00
2022-07-25T06:17:32.616Z,2020.00
2022-07-25T06:18:30.925Z,2028.00
2022-07-25T06:19:30.910Z,2028.00
2022-07-25T06:20:30.887Z,1952.00
2022-07-25T06:21:30.883Z,1972.00
2022-07-25T06:22:30.909Z,1968.00
2022-07-25T06:23:30.862Z,1964.00
2022-07-25T06:24:30.901Z,1944.00
2022-07-25T06:25:30.849Z,1944.00
2022-07-25T06:26:30.834Z,1952.00
2022-07-25T06:27:30.933Z,1960.00
2022-07-25T06:28:30.808Z,1964.00
2022-07-25T06:29:30.847Z,1972.00
2022-07-25T06:30:30.779Z,1972.00
2022-07-25T06:31:30.800Z,1972.00
2022-07-25T06:32:30.761Z,1968.00
2022-07-25T06:33:30.766Z,1968.00
2022-07-25T06:34:30.756Z,1968.00
2022-07-25T06:35:30.724Z,1964.00
2022-07-25T06:36:32.285Z,1968.00
2022-07-25T06:37:30.722Z,1976.00
2022-07-25T06:38:30.734Z,1976.00
2022-07-25T06:39:30.775Z,1984.00
2022-07-25T06:40:30.669Z,1992.00
2022-07-25T06:41:30.660Z,1996.00
2022-07-25T06:42:30.666Z,1968.00
2022-07-25T06:43:30.645Z,1980.00
2022-07-25T06:44:30.654Z,2008.00
2022-07-25T06:45:30.617Z,2024.00
2022-07-25T06:46:30.639Z,2032.00
2022-07-25T06:47:35.527Z,2032.00
2022-07-25T06:48:31.702Z,2040.00
2022-07-25T06:49:30.629Z,2060.00
2022-07-25T06:50:30.571Z,2076.00
2022-07-25T06:51:30.593Z,2256.00
2022-07-25T06:52:30.531Z,2460.00
2022-07-25T06:53:30.518Z,2516.00
2022-07-25T06:54:30.614Z,2496.00
2022-07-25T06:55:30.512Z,2488.00
2022-07-25T06:56:30.500Z,2480.00
2022-07-25T06:57:30.536Z,2472.00
2022-07-25T06:58:30.463Z,2456.00
2022-07-25T06:59:30.500Z,2452.00
2022-07-25T07:00:30.471Z,2444.00
2022-07-25T07:01:30.562Z,2432.00
2022-07-25T07:02:30.420Z,2420.00
2022-07-25T07:03:30.443Z,2436.00
2022-07-25T07:04:31.086Z,2428.00
2022-07-25T07:05:30.412Z,2460.00
2022-07-25T07:06:30.377Z,2452.00
2022-07-25T07:07:51.417Z,2468.00
2022-07-25T07:08:30.373Z,2476.00
2022-07-25T07:09:30.369Z,2476.00
2022-07-25T07:10:31.084Z,2468.00
2022-07-25T07:11:30.373Z,2464.00
2022-07-25T07:12:30.333Z,2476.00
2022-07-25T07:13:30.306Z,2424.00
2022-07-25T07:14:30.291Z,2424.00
2022-07-25T07:15:30.277Z,2428.00
2022-07-25T07:16:30.403Z,2484.00
2022-07-25T07:17:30.258Z,2492.00
2022-07-25T07:18:30.253Z,2468.00
2022-07-25T07:19:30.245Z,2488.00
2022-07-25T07:20:30.225Z,2500.00
2022-07-25T07:21:30.210Z,2496.00
2022-07-25T07:22:30.222Z,2432.00
2022-07-25T07:23:30.211Z,2432.00
2022-07-25T07:24:30.175Z,2424.00
2022-07-25T07:25:30.171Z,2408.00
2022-07-25T07:26:30.159Z,2412.00
2022-07-25T07:27:30.158Z,2404.00
2022-07-25T07:28:30.148Z,2392.00
2022-07-25T07:29:30.155Z,2364.00
2022-07-25T07:30:58.561Z,2364.00
2022-07-25T07:31:31.203Z,2360.00
2022-07-25T07:32:30.101Z,2352.00
2022-07-25T07:33:30.088Z,2344.00
2022-07-25T07:34:30.074Z,2324.00
2022-07-25T07:35:30.105Z,2292.00
2022-07-25T07:36:31.096Z,2280.00
2022-07-25T07:37:35.770Z,2292.00
2022-07-25T07:38:31.037Z,2284.00
2022-07-25T07:39:30.117Z,2284.00
2022-07-25T07:40:30.016Z,2276.00
2022-07-25T07:41:30.002Z,2280.00
2022-07-25T07:42:30.034Z,2260.00
2022-07-25T07:43:30.485Z,2288.00
2022-07-25T07:44:29.964Z,2284.00
2022-07-25T07:45:29.948Z,2276.00
2022-07-25T07:46:30.018Z,2276.00
2022-07-25T07:47:29.932Z,2276.00
2022-07-25T07:48:30.022Z,2272.00
2022-07-25T07:49:29.976Z,2276.00
2022-07-25T07:50:29.898Z,2280.00
2022-07-25T07:51:29.894Z,2284.00
2022-07-25T07:52:29.881Z,2276.00
2022-07-25T07:53:29.902Z,2284.00
2022-07-25T07:54:29.860Z,2284.00
2022-07-25T07:55:29.879Z,2272.00
2022-07-25T07:56:29.861Z,2284.00
2022-07-25T07:57:29.832Z,2288.00
2022-07-25T07:58:29.823Z,2288.00
2022-07-25T07:59:29.832Z,2288.00
2022-07-25T08:00:29.800Z,2296.00
2022-07-25T08:01:29.911Z,2288.00
2022-07-25T08:02:29.845Z,2284.00
2022-07-25T08:03:29.766Z,2292.00
2022-07-25T08:04:29.779Z,2296.00
2022-07-25T08:05:29.741Z,2296.00
2022-07-25T08:06:29.740Z,2312.00
2022-07-25T08:07:29.750Z,2292.00
2022-07-25T08:08:31.577Z,2292.00
2022-07-25T08:09:32.231Z,2292.00
2022-07-25T08:10:29.829Z,2392.00
2022-07-25T08:11:29.695Z,2292.00
2022-07-25T08:12:29.689Z,2296.00
2022-07-25T08:13:30.470Z,2292.00
2022-07-25T08:14:29.646Z,2432.00
2022-07-25T08:15:29.685Z,2292.00
2022-07-25T08:16:29.734Z,2288.00
2022-07-25T08:17:29.694Z,2288.00
2022-07-25T08:18:29.628Z,2292.00
2022-07-25T08:19:29.594Z,2292.00
2022-07-25T08:20:37.845Z,2296.00
2022-07-25T08:21:30.593Z,2292.00
2022-07-25T08:22:29.562Z,2300.00
2022-07-25T08:23:29.573Z,2304.00
2022-07-25T08:24:29.533Z,2336.00
2022-07-25T08:25:29.524Z,2296.00
2022-07-25T08:26:29.558Z,2344.00
2022-07-25T08:27:29.506Z,2300.00
2022-07-25T08:28:29.497Z,2288.00
2022-07-25T08:29:29.503Z,2280.00
2022-07-25T08:30:29.486Z,2288.00
2022-07-25T08:31:29.521Z,2280.00
2022-07-25T08:32:29.473Z,2288.00
2022-07-25T08:33:29.439Z,2280.00
2022-07-25T08:34:29.457Z,2284.00
2022-07-25T08:35:29.416Z,2280.00
2022-07-25T08:36:34.550Z,2264.00
2022-07-25T08:37:30.421Z,2280.00
2022-07-25T08:38:29.379Z,2276.00
2022-07-25T08:39:29.381Z,2300.00
2022-07-25T08:40:29.382Z,2276.00
2022-07-25T08:41:29.349Z,2276.00
2022-07-25T08:42:29.353Z,2272.00
2022-07-25T08:43:29.384Z,2276.00
2022-07-25T08:44:29.314Z,2280.00
2022-07-25T08:45:29.308Z,2276.00
2022-07-25T08:46:29.332Z,2276.00
2022-07-25T08:47:29.284Z,2280.00
2022-07-25T08:48:29.321Z,2284.00
2022-07-25T08:49:29.283Z,2276.00
2022-07-25T08:50:29.251Z,2268.00
2022-07-25T08:51:29.241Z,2280.00
2022-07-25T08:52:29.230Z,2276.00
2022-07-25T08:53:33.318Z,2276.00
2022-07-25T08:54:29.265Z,2368.00
2022-07-25T08:55:29.211Z,2280.00
2022-07-25T08:56:29.185Z,2292.00
2022-07-25T08:57:29.227Z,2288.00
2022-07-25T08:58:29.180Z,2284.00
2022-07-25T08:59:29.157Z,2280.00
2022-07-25T09:00:29.367Z,2288.00
2022-07-25T09:01:32.984Z,2288.00
2022-07-25T09:02:30.251Z,2288.00
2022-07-25T09:03:29.212Z,2292.00
2022-07-25T09:04:29.120Z,2304.00
2022-07-25T09:05:29.782Z,2304.00
2022-07-25T09:06:29.154Z,2292.00
2022-07-25T09:07:29.332Z,2280.00
2022-07-25T09:08:29.126Z,2260.00
2022-07-25T09:09:29.052Z,2292.00
2022-07-25T09:10:29.041Z,2284.00
2022-07-25T09:11:29.050Z,2288.00
2022-07-25T09:12:29.042Z,2272.00
2022-07-25T09:13:29.003Z,2280.00
2022-07-25T09:14:29.023Z,2276.00
2022-07-25T09:15:29.113Z,2268.00
2022-07-25T09:16:29.034Z,2280.00
2022-07-25T09:17:28.965Z,2268.00
2022-07-25T09:18:28.965Z,2280.00
2022-07-25T09:19:28.943Z,2272.00
2022-07-25T09:20:28.930Z,2244.00
2022-07-25T09:21:28.959Z,2252.00
2022-07-25T09:22:28.914Z,2252.00
2022-07-25T09:23:28.919Z,2244.00
2022-07-25T09:24:28.896Z,2256.00
2022-07-25T09:25:28.885Z,2264.00
2022-07-25T09:26:28.909Z,2260.00
2022-07-25T09:27:28.882Z,2284.00
2022-07-25T09:28:28.848Z,2260.00
2022-07-25T09:29:28.836Z,2268.00
2022-07-25T09:30:28.827Z,2256.00
2022-07-25T09:31:28.903Z,2264.00
2022-07-25T09:32:28.824Z,2264.00
2022-07-25T09:33:28.810Z,2252.00
2022-07-25T09:34:28.791Z,2268.00
2022-07-25T09:35:28.779Z,2264.00
2022-07-25T09:36:28.762Z,2248.00
2022-07-25T09:37:28.774Z,2240.00
2022-07-25T09:38:28.742Z,2244.00
2022-07-25T09:39:28.748Z,2260.00
2022-07-25T09:40:28.716Z,2228.00
2022-07-25T09:41:28.716Z,2252.00
2022-07-25T09:42:28.728Z,2244.00
2022-07-25T09:43:28.688Z,2236.00
2022-07-25T09:44:28.703Z,2244.00
2022-07-25T09:45:31.549Z,2268.00
2022-07-25T09:46:28.698Z,2240.00
2022-07-25T09:47:28.733Z,2244.00
2022-07-25T09:48:28.668Z,2256.00
2022-07-25T09:49:28.629Z,2240.00
2022-07-25T09:50:28.641Z,2244.00
2022-07-25T09:51:28.609Z,2240.00
2022-07-25T09:52:28.594Z,2236.00
2022-07-25T09:53:28.602Z,2236.00
2022-07-25T09:54:28.571Z,2248.00
2022-07-25T09:55:28.566Z,2256.00
2022-07-25T09:56:28.574Z,2244.00
2022-07-25T09:57:28.539Z,2236.00
2022-07-25T09:58:28.550Z,2228.00
2022-07-25T09:59:28.522Z,2224.00
2022-07-25T10:00:28.530Z,2248.00
2022-07-25T10:01:28.565Z,2252.00
2022-07-25T10:02:28.552Z,2252.00
2022-07-25T10:03:28.516Z,2256.00
2022-07-25T10:04:28.481Z,2248.00
2022-07-25T10:05:28.463Z,2244.00
2022-07-25T10:06:28.471Z,2276.00
2022-07-25T10:07:31.558Z,2260.00
2022-07-25T10:08:28.455Z,2264.00
2022-07-25T10:09:28.434Z,2248.00
2022-07-25T10:10:28.426Z,2244.00
2022-07-25T10:11:28.402Z,2240.00
2022-07-25T10:12:28.381Z,2272.00
2022-07-25T10:13:28.399Z,2264.00
2022-07-25T10:14:28.381Z,2268.00
2022-07-25T10:15:28.361Z,2256.00
2022-07-25T10:16:28.376Z,2252.00
2022-07-25T10:17:28.354Z,2280.00
2022-07-25T10:18:28.359Z,2284.00
2022-07-25T10:19:28.322Z,2280.00
2022-07-25T10:20:28.310Z,2284.00
2022-07-25T10:21:28.860Z,2292.00
2022-07-25T10:22:53.816Z,2280.00
2022-07-25T10:23:29.267Z,2268.00
2022-07-25T10:24:28.298Z,2284.00
2022-07-25T10:25:28.248Z,2280.00
2022-07-25T10:26:28.234Z,2284.00
2022-07-25T10:27:28.228Z,2276.00
2022-07-25T10:28:28.347Z,2272.00
2022-07-25T10:29:28.252Z,2280.00
2022-07-25T10:30:28.247Z,2292.00
2022-07-25T10:31:28.251Z,2288.00
2022-07-25T10:32:28.172Z,2296.00
2022-07-25T10:33:28.159Z,2288.00
2022-07-25T10:34:28.151Z,2316.00
2022-07-25T10:35:28.177Z,2300.00
2022-07-25T10:36:28.126Z,2304.00
2022-07-25T10:37:28.250Z,2312.00
2022-07-25T10:38:28.103Z,2304.00
2022-07-25T10:39:28.097Z,2316.00
2022-07-25T10:40:28.087Z,2308.00
2022-07-25T10:41:28.091Z,2328.00
2022-07-25T10:42:28.062Z,2336.00
2022-07-25T10:43:28.082Z,2340.00
2022-07-25T10:44:28.043Z,2328.00
2022-07-25T10:45:28.039Z,2332.00
2022-07-25T10:46:28.182Z,2348.00
2022-07-25T10:47:28.012Z,2348.00
2022-07-25T10:48:28.059Z,2352.00
2022-07-25T10:49:32.345Z,2348.00
2022-07-25T10:50:53.432Z,2356.00
2022-07-25T10:51:29.044Z,2352.00
2022-07-25T10:52:27.960Z,2356.00
2022-07-25T10:53:27.953Z,2360.00
2022-07-25T10:54:27.936Z,2376.00
2022-07-25T10:55:27.951Z,2376.00
2022-07-25T10:56:27.914Z,2364.00
2022-07-25T10:57:31.748Z,2376.00
2022-07-25T10:58:28.100Z,2404.00
2022-07-25T10:59:27.890Z,2408.00
2022-07-25T11:00:27.875Z,2412.00
2022-07-25T11:01:27.923Z,2424.00
2022-07-25T11:02:27.930Z,2424.00
2022-07-25T11:03:27.847Z,2420.00
2022-07-25T11:04:27.839Z,2412.00
2022-07-25T11:05:27.829Z,2416.00
2022-07-25T11:06:27.810Z,2420.00
2022-07-25T11:07:27.850Z,2424.00
2022-07-25T11:08:27.786Z,2440.00
2022-07-25T11:09:28.230Z,2420.00
2022-07-25T11:10:27.774Z,2416.00
2022-07-25T11:11:27.775Z,2428.00
2022-07-25T11:12:27.754Z,2448.00
2022-07-25T11:13:28.071Z,2456.00
2022-07-25T11:14:27.730Z,2460.00
2022-07-25T11:15:27.722Z,2456.00
2022-07-25T11:16:27.757Z,2444.00
2022-07-25T11:17:27.695Z,2452.00
2022-07-25T11:18:27.686Z,2480.00
2022-07-25T11:19:27.717Z,2488.00
2022-07-25T11:20:27.667Z,2476.00
2022-07-25T11:21:27.658Z,2496.00
2022-07-25T11:22:27.660Z,2500.00
2022-07-25T11:23:27.636Z,2524.00
2022-07-25T11:24:27.685Z,2548.00
2022-07-25T11:25:27.687Z,2556.00
2022-07-25T11:26:27.604Z,2572.00
2022-07-25T11:27:27.723Z,2568.00
2022-07-25T11:28:27.600Z,2568.00
2022-07-25T11:29:27.570Z,2584.00
2022-07-25T11:30:27.599Z,2612.00
2022-07-25T11:31:27.610Z,2632.00
2022-07-25T11:32:27.541Z,2644.00
2022-07-25T11:33:27.539Z,2640.00
2022-07-25T11:34:27.532Z,2684.00
2022-07-25T11:35:27.503Z,2676.00
2022-07-25T11:36:27.532Z,2708.00
2022-07-25T11:37:27.485Z,2756.00
2022-07-25T11:38:27.473Z,2744.00
2022-07-25T11:39:27.463Z,2760.00
2022-07-25T11:40:27.457Z,2780.00
2022-07-25T11:41:27.505Z,2784.00
2022-07-25T11:42:27.448Z,2800.00
2022-07-25T11:43:27.419Z,2824.00
2022-07-25T11:44:27.409Z,2840.00
2022-07-25T11:45:27.537Z,2864.00
2022-07-25T11:46:27.472Z,2884.00
2022-07-25T11:47:27.398Z,2880.00
2022-07-25T11:48:27.454Z,2896.00
2022-07-25T11:49:27.390Z,2924.00
2022-07-25T11:50:27.366Z,2936.00
2022-07-25T11:51:27.339Z,2964.00
2022-07-25T11:52:27.342Z,2988.00
2022-07-25T11:53:27.322Z,3000.00
2022-07-25T11:54:27.326Z,3024.00
2022-07-25T11:55:27.302Z,3056.00
2022-07-25T11:56:43.595Z,3072.00
2022-07-25T11:57:28.290Z,3104.00
2022-07-25T11:58:27.270Z,3108.00
2022-07-25T11:59:27.256Z,3124.00
2022-07-25T12:00:27.260Z,3140.00
2022-07-25T12:01:27.234Z,3168.00
2022-07-25T12:02:27.399Z,3208.00
2022-07-25T12:03:27.304Z,3220.00
2022-07-25T12:04:27.202Z,3252.00
2022-07-25T12:05:27.199Z,3312.00
2022-07-25T12:06:27.205Z,3300.00
2022-07-25T12:07:27.531Z,3316.00
2022-07-25T12:08:27.170Z,3328.00
2022-07-25T12:09:27.147Z,3372.00
2022-07-25T12:10:27.141Z,3400.00
2022-07-25T12:11:27.132Z,3432.00
2022-07-25T12:12:27.159Z,3448.00
2022-07-25T12:13:27.128Z,3476.00
2022-07-25T12:14:27.090Z,3492.00
2022-07-25T12:15:27.087Z,3520.00
2022-07-25T12:16:27.099Z,3504.00
2022-07-25T12:17:27.061Z,3540.00
2022-07-25T12:18:27.091Z,3584.00
2022-07-25T12:19:27.038Z,3580.00
2022-07-25T12:20:27.033Z,3684.00
2022-07-25T12:21:27.018Z,3704.00
2022-07-25T12:22:27.018Z,3732.00
2022-07-25T12:23:27.023Z,3752.00
2022-07-25T12:24:27.018Z,3776.00
2022-07-25T12:25:30.853Z,3740.00
2022-07-25T12:26:26.974Z,3796.00